Time;durP1;ratioP1;P1;durP2;ratioP2;P2;SDS_P1;SDS_P2;PMS_P1;PMS_P2;Temp;Humidity;BMP_temperature;BMP_pressure;BME280_temperature;BME280_humidity;BME280_pressure;Samples;Min_cycle;Max_cycle;Signal;HPM_P1;HPM_P2
2023/01/30 00:00:59;;;;;;;18.10;9.88;;;19.10;52.60;;;;;;5031519;28;20596;-72
2023/01/30 00:03:25;;;;;;;12.77;8.65;;;19.10;52.70;;;;;;4998718;28;20393;-72
2023/01/30 00:05:51;;;;;;;17.23;9.00;;;19.10;52.60;;;;;;5033055;28;20033;-72
2023/01/30 00:08:17;;;;;;;15.30;9.55;;;19.00;52.80;;;;;;5015039;28;20396;-71
2023/01/30 00:10:45;;;;;;;24.45;11.82;;;19.10;52.60;;;;;;5015070;28;20313;-72
2023/01/30 00:13:13;;;;;;;19.45;10.52;;;19.10;52.60;;;;;;4998640;28;20041;-71
2023/01/30 00:15:39;;;;;;;21.73;10.18;;;19.00;52.50;;;;;;5032023;28;20128;-72
2023/01/30 00:18:05;;;;;;;22.23;10.68;;;19.10;52.70;;;;;;5033776;28;20068;-71
2023/01/30 00:20:31;;;;;;;20.98;10.60;;;19.10;52.80;;;;;;5013539;28;20457;-71
2023/01/30 00:22:59;;;;;;;19.15;10.55;;;19.10;52.80;;;;;;5015463;28;20071;-71
2023/01/30 00:25:26;;;;;;;19.58;10.27;;;19.10;53.00;;;;;;5014671;28;20026;-71
2023/01/30 00:27:51;;;;;;;19.15;9.60;;;19.10;53.00;;;;;;5033671;28;20022;-70
2023/01/30 00:30:18;;;;;;;17.35;9.70;;;19.10;52.90;;;;;;5015603;28;20534;-71
2023/01/30 00:32:43;;;;;;;16.92;9.02;;;19.10;53.10;;;;;;5015926;28;20392;-71
2023/01/30 00:35:09;;;;;;;17.33;9.93;;;19.10;53.00;;;;;;5015688;28;20030;-71
2023/01/30 00:37:35;;;;;;;18.88;9.55;;;19.10;53.10;;;;;;5015772;28;20026;-71
2023/01/30 00:40:01;;;;;;;17.02;9.63;;;19.00;53.20;;;;;;5015444;28;20026;-71
2023/01/30 00:47:57;;;;;;;15.25;8.88;;;19.00;53.30;;;;;;4999541;28;20033;-71
2023/01/30 00:50:23;;;;;;;16.38;9.68;;;19.00;53.40;;;;;;5015290;28;20080;-71
2023/01/30 00:52:48;;;;;;;14.27;8.93;;;19.10;53.50;;;;;;5015237;28;20485;-73
2023/01/30 00:55:14;;;;;;;22.77;9.57;;;19.00;53.60;;;;;;5015396;28;20037;-70
2023/01/30 00:57:40;;;;;;;14.93;8.80;;;19.00;53.60;;;;;;5014588;28;20033;-70
2023/01/30 01:00:08;;;;;;;16.15;9.52;;;19.00;53.60;;;;;;4994814;28;20040;-71
2023/01/30 01:02:34;;;;;;;14.73;9.20;;;19.00;53.60;;;;;;4993384;28;20030;-71
2023/01/30 01:05:00;;;;;;;15.45;8.88;;;19.00;53.50;;;;;;5030139;28;20503;-71
2023/01/30 01:07:26;;;;;;;16.35;8.05;;;19.00;53.80;;;;;;5014296;28;20048;-71
2023/01/30 01:09:51;;;;;;;14.82;8.32;;;19.00;53.90;;;;;;5014651;28;20570;-71
2023/01/30 01:12:17;;;;;;;16.50;8.77;;;19.00;53.80;;;;;;5014996;28;20477;-71
2023/01/30 01:14:43;;;;;;;13.93;8.82;;;19.00;53.70;;;;;;5011874;28;20080;-71
2023/01/30 01:17:09;;;;;;;16.20;8.55;;;19.00;53.80;;;;;;5007287;28;20029;-71
2023/01/30 01:19:35;;;;;;;14.70;8.60;;;19.00;53.90;;;;;;5013748;28;20412;-71
2023/01/30 01:22:01;;;;;;;15.20;8.18;;;19.00;53.70;;;;;;5012494;28;20041;-71
2023/01/30 01:24:27;;;;;;;14.77;8.52;;;19.00;54.10;;;;;;5014490;28;20048;-70
2023/01/30 01:26:52;;;;;;;14.93;9.23;;;19.10;53.90;;;;;;5014851;28;20392;-71
2023/01/30 01:29:18;;;;;;;14.35;8.48;;;19.10;54.10;;;;;;4997114;28;20025;-71
2023/01/30 01:31:44;;;;;;;14.38;8.25;;;19.10;54.10;;;;;;5014663;28;20374;-73
2023/01/30 01:34:10;;;;;;;12.77;8.50;;;19.10;54.20;;;;;;5014658;28;20041;-71
2023/01/30 01:36:36;;;;;;;14.98;8.43;;;19.10;54.00;;;;;;4994975;28;20026;-71
2023/01/30 01:39:02;;;;;;;14.23;8.27;;;19.10;54.00;;;;;;4978713;28;20040;-71
2023/01/30 01:41:29;;;;;;;15.07;8.30;;;19.10;54.20;;;;;;5012355;28;20038;-71
2023/01/30 01:44:05;;;;;;;13.48;8.05;;;19.10;54.10;;;;;;5032032;28;20021;-71
2023/01/30 01:46:50;;;;;;;15.50;8.18;;;19.10;54.00;;;;;;5014411;28;20033;-71
2023/01/30 01:49:20;;;;;;;15.13;8.23;;;19.10;54.00;;;;;;5014194;28;20407;-71
2023/01/30 01:52:04;;;;;;;17.45;8.80;;;19.10;54.10;;;;;;5014618;28;20385;-71
2023/01/30 01:54:43;;;;;;;13.50;7.63;;;19.00;54.30;;;;;;5031822;28;20178;-71
2023/01/30 01:57:17;;;;;;;13.13;8.43;;;19.10;54.30;;;;;;5014404;28;20034;-71
2023/01/30 01:59:51;;;;;;;11.80;7.47;;;19.10;54.30;;;;;;5013953;28;20033;-71
2023/01/30 02:02:18;;;;;;;13.95;7.65;;;19.10;54.40;;;;;;5030621;28;20048;-71
2023/01/30 02:05:04;;;;;;;14.75;7.60;;;19.00;53.80;;;;;;5012948;28;20029;-71
2023/01/30 02:07:38;;;;;;;13.23;7.50;;;19.10;54.80;;;;;;5013037;28;20022;-72
2023/01/30 02:10:07;;;;;;;16.85;8.02;;;19.00;54.10;;;;;;5011990;28;20091;-71
2023/01/30 02:12:33;;;;;;;14.25;7.40;;;19.10;54.20;;;;;;5013441;28;20041;-72
2023/01/30 02:15:00;;;;;;;11.13;7.20;;;19.10;54.20;;;;;;4997107;28;20029;-71
2023/01/30 02:17:26;;;;;;;11.00;7.38;;;19.10;54.40;;;;;;5002341;28;20072;-71
2023/01/30 02:20:03;;;;;;;12.27;7.40;;;19.10;54.20;;;;;;5017273;28;20104;-71
2023/01/30 02:23:05;;;;;;;12.05;7.50;;;19.10;54.60;;;;;;5012101;28;20040;-71
2023/01/30 02:25:30;;;;;;;11.82;6.85;;;19.10;54.30;;;;;;4972572;28;20030;-71
2023/01/30 02:28:47;;;;;;;12.95;7.18;;;19.10;54.30;;;;;;5013888;28;20091;-71
2023/01/30 02:31:55;;;;;;;11.80;6.97;;;19.10;54.40;;;;;;4999563;28;20560;-71
2023/01/30 02:34:39;;;;;;;11.13;7.10;;;19.10;54.60;;;;;;5000514;28;20507;-71
2023/01/30 02:37:30;;;;;;;12.75;7.03;;;19.10;54.20;;;;;;5013877;28;20155;-71
2023/01/30 02:40:14;;;;;;;9.52;6.50;;;19.10;54.70;;;;;;4997104;28;20038;-71
2023/01/30 02:43:12;;;;;;;11.30;7.32;;;19.10;54.50;;;;;;5013775;28;20107;-71
2023/01/30 02:45:52;;;;;;;12.65;7.15;;;19.10;54.40;;;;;;4997327;28;20037;-71
2023/01/30 02:48:40;;;;;;;11.70;7.10;;;19.10;54.40;;;;;;5013777;28;20112;-71
2023/01/30 02:51:32;;;;;;;10.85;6.60;;;19.10;54.60;;;;;;5013423;28;20057;-71
2023/01/30 02:53:58;;;;;;;12.38;7.28;;;19.10;54.50;;;;;;5020659;28;20049;-71
2023/01/30 02:56:25;;;;;;;10.45;7.13;;;19.10;54.50;;;;;;5013392;28;20566;-71
2023/01/30 02:59:07;;;;;;;12.18;7.28;;;19.10;54.40;;;;;;4997403;28;20041;-71
2023/01/30 03:01:48;;;;;;;11.40;6.75;;;19.10;54.60;;;;;;5008643;28;20032;-71
2023/01/30 03:04:30;;;;;;;10.65;6.80;;;19.10;54.60;;;;;;5012611;28;20032;-71
2023/01/30 03:07:17;;;;;;;11.60;6.82;;;19.10;54.60;;;;;;5008014;28;20026;-71
2023/01/30 03:09:50;;;;;;;11.05;6.65;;;19.10;54.70;;;;;;5012539;28;20469;-71
2023/01/30 03:12:34;;;;;;;11.57;6.30;;;19.00;54.40;;;;;;5013033;28;20263;-71
2023/01/30 03:15:25;;;;;;;9.90;6.35;;;19.10;54.70;;;;;;5031022;28;20033;-71
2023/01/30 03:17:51;;;;;;;10.98;6.72;;;19.10;54.80;;;;;;5011690;28;20037;-71
2023/01/30 03:20:19;;;;;;;11.30;6.45;;;19.10;54.60;;;;;;4996101;28;20396;-71
2023/01/30 03:22:45;;;;;;;11.20;6.80;;;19.10;54.80;;;;;;4998564;28;20033;-71
2023/01/30 03:25:19;;;;;;;11.48;6.30;;;19.00;54.70;;;;;;4978903;28;20108;-72
2023/01/30 03:27:46;;;;;;;9.93;6.55;;;19.10;55.20;;;;;;5005819;28;20079;-71
2023/01/30 03:30:12;;;;;;;12.25;6.75;;;19.10;54.80;;;;;;4996583;28;20034;-72
2023/01/30 03:32:39;;;;;;;10.57;6.38;;;19.10;54.70;;;;;;5000945;28;20056;-71
2023/01/30 03:35:05;;;;;;;11.82;6.70;;;19.10;54.50;;;;;;4983944;28;20393;-72
2023/01/30 03:37:31;;;;;;;10.43;6.18;;;19.10;54.90;;;;;;5015028;28;20033;-72
2023/01/30 03:39:58;;;;;;;10.00;5.95;;;19.10;55.00;;;;;;5014960;28;20532;-72
2023/01/30 03:42:26;;;;;;;11.00;6.93;;;19.10;55.30;;;;;;5016031;28;20033;-72
2023/01/30 03:44:52;;;;;;;11.30;6.55;;;19.10;55.20;;;;;;5016654;28;20078;-72
2023/01/30 03:47:18;;;;;;;9.55;6.15;;;19.10;54.70;;;;;;4991648;28;20113;-72
2023/01/30 03:49:46;;;;;;;11.45;6.10;;;19.10;55.10;;;;;;4964353;28;20494;-72
2023/01/30 03:52:12;;;;;;;9.73;6.20;;;19.10;55.20;;;;;;5015327;28;20116;-72
2023/01/30 03:54:37;;;;;;;14.65;7.15;;;19.10;55.20;;;;;;5016374;28;20104;-72
2023/01/30 03:57:03;;;;;;;11.65;6.22;;;19.10;55.00;;;;;;5000455;28;20064;-72
2023/01/30 03:59:30;;;;;;;11.68;7.38;;;19.10;55.10;;;;;;5015964;28;20036;-72
2023/01/30 04:02:03;;;;;;;9.98;6.25;;;19.10;55.20;;;;;;5016302;28;20036;-71
2023/01/30 04:04:29;;;;;;;9.48;6.07;;;19.10;55.00;;;;;;5016310;28;20025;-72
2023/01/30 04:06:56;;;;;;;10.63;6.32;;;19.10;55.30;;;;;;5000106;28;20103;-72
2023/01/30 04:09:22;;;;;;;10.65;6.05;;;19.10;55.10;;;;;;5016070;28;20029;-72
2023/01/30 04:11:51;;;;;;;10.93;6.13;;;19.00;54.90;;;;;;5016160;28;20566;-71
2023/01/30 04:14:17;;;;;;;8.82;5.97;;;19.10;55.10;;;;;;5016383;28;20029;-71
2023/01/30 04:17:03;;;;;;;7.30;5.53;;;19.00;54.90;;;;;;5014097;28;20037;-72
2023/01/30 04:20:01;;;;;;;10.27;6.07;;;19.00;55.20;;;;;;4994616;28;20061;-72
2023/01/30 04:22:31;;;;;;;11.50;6.13;;;19.00;55.40;;;;;;4999554;28;20025;-72
2023/01/30 04:24:57;;;;;;;12.95;6.03;;;19.10;55.20;;;;;;5016060;28;20108;-72
2023/01/30 04:27:23;;;;;;;11.60;6.45;;;19.00;55.50;;;;;;5014474;28;20099;-72
2023/01/30 04:30:06;;;;;;;10.65;6.43;;;19.10;55.20;;;;;;5013130;28;20160;-72
2023/01/30 04:32:32;;;;;;;10.55;6.07;;;19.10;55.40;;;;;;5015562;28;20064;-72
2023/01/30 04:34:58;;;;;;;9.93;5.88;;;19.10;55.30;;;;;;4999458;28;20034;-71
2023/01/30 04:37:24;;;;;;;10.15;5.78;;;19.10;55.20;;;;;;5015205;28;20405;-72
2023/01/30 04:39:50;;;;;;;9.88;5.65;;;19.10;55.40;;;;;;5014003;28;20033;-71
2023/01/30 04:42:16;;;;;;;10.15;6.07;;;19.10;55.40;;;;;;5014495;28;20032;-72
2023/01/30 04:44:56;;;;;;;11.43;5.82;;;19.10;55.20;;;;;;4985183;28;20424;-73
2023/01/30 04:47:26;;;;;;;;;;;19.10;55.50;;;;;;5015332;28;20021;-72
2023/01/30 04:49:59;;;;;;;9.80;5.78;;;19.10;55.60;;;;;;4998109;28;20320;-73
2023/01/30 04:52:28;;;;;;;11.63;6.30;;;19.10;55.80;;;;;;5015238;28;20044;-72
2023/01/30 04:54:54;;;;;;;9.45;5.35;;;19.10;55.60;;;;;;5028359;23;20472;-73
2023/01/30 04:57:20;;;;;;;10.70;6.45;;;19.10;55.70;;;;;;5010359;28;20029;-73
2023/01/30 04:59:45;;;;;;;10.98;6.22;;;19.10;56.10;;;;;;5026567;28;20025;-73
2023/01/30 05:02:14;;;;;;;10.02;5.50;;;19.00;55.60;;;;;;5014308;28;20451;-73
2023/01/30 05:04:40;;;;;;;11.57;5.50;;;19.10;55.80;;;;;;5035408;28;20156;-73
2023/01/30 05:07:05;;;;;;;10.88;6.50;;;19.10;55.50;;;;;;5039469;28;20053;-73
2023/01/30 05:09:31;;;;;;;10.15;5.72;;;19.10;55.60;;;;;;5030307;28;20049;-73
2023/01/30 05:11:57;;;;;;;9.30;6.13;;;19.10;55.80;;;;;;5030869;28;20400;-74
2023/01/30 05:14:23;;;;;;;11.48;6.07;;;19.10;55.50;;;;;;5032688;28;20108;-74
2023/01/30 05:16:49;;;;;;;8.75;5.30;;;19.10;55.40;;;;;;5031680;28;20049;-74
2023/01/30 05:19:14;;;;;;;13.93;6.10;;;19.10;55.70;;;;;;5030273;28;20033;-74
2023/01/30 05:21:40;;;;;;;9.35;5.95;;;19.10;55.40;;;;;;5031631;28;20029;-73
2023/01/30 05:24:06;;;;;;;10.00;6.25;;;19.10;55.80;;;;;;5029579;28;20030;-74
2023/01/30 05:26:32;;;;;;;9.23;5.78;;;19.10;56.00;;;;;;5030692;28;20017;-74
2023/01/30 05:28:58;;;;;;;9.70;5.88;;;19.10;55.40;;;;;;5030526;28;20029;-73
2023/01/30 05:31:24;;;;;;;10.20;6.03;;;19.10;55.70;;;;;;5029980;28;20050;-73
2023/01/30 05:33:51;;;;;;;10.18;5.80;;;19.10;55.50;;;;;;5030668;28;20029;-73
2023/01/30 05:36:19;;;;;;;9.73;6.10;;;19.10;55.60;;;;;;5052070;28;20033;-74
2023/01/30 05:38:45;;;;;;;9.82;5.80;;;19.10;55.60;;;;;;5033962;28;20021;-74
2023/01/30 05:41:12;;;;;;;9.50;5.85;;;19.10;55.60;;;;;;5031049;28;20033;-73
2023/01/30 05:43:38;;;;;;;10.98;5.82;;;19.10;55.60;;;;;;5031513;28;20021;-73
2023/01/30 05:46:05;;;;;;;10.35;5.80;;;19.10;55.70;;;;;;5031323;28;20021;-74
2023/01/30 05:48:32;;;;;;;8.50;5.47;;;19.10;55.80;;;;;;5031333;28;20022;-73
2023/01/30 05:50:59;;;;;;;9.90;5.70;;;19.10;55.90;;;;;;5030431;28;20037;-73
2023/01/30 05:53:28;;;;;;;10.05;5.50;;;19.10;56.00;;;;;;5030053;28;20122;-74
2023/01/30 05:55:55;;;;;;;;;;;19.10;55.70;;;;;;5062352;28;20553;-73
2023/01/30 05:58:20;;;;;;;10.73;5.53;;;19.10;55.60;;;;;;5042092;28;19916;-73
2023/01/30 06:00:46;;;;;;;9.55;5.43;;;19.10;55.80;;;;;;5071363;28;20055;-73
2023/01/30 06:03:12;;;;;;;11.57;5.95;;;19.10;55.80;;;;;;5071638;28;20021;-73
2023/01/30 06:05:38;;;;;;;11.13;5.85;;;19.10;55.80;;;;;;5071883;28;20529;-74
2023/01/30 06:08:04;;;;;;;10.35;5.60;;;19.10;55.80;;;;;;5071678;28;20025;-74
2023/01/30 06:10:30;;;;;;;11.40;6.03;;;19.10;55.80;;;;;;5033389;28;20054;-73
2023/01/30 06:12:55;;;;;;;9.43;5.65;;;19.10;55.90;;;;;;5051577;28;20041;-73
2023/01/30 06:15:21;;;;;;;9.90;5.93;;;19.10;55.70;;;;;;5051396;28;20052;-73
2023/01/30 06:17:47;;;;;;;10.13;5.55;;;19.10;55.70;;;;;;5048892;28;20428;-73
2023/01/30 06:20:12;;;;;;;10.40;5.82;;;19.10;56.10;;;;;;5050352;28;20507;-73
2023/01/30 06:22:38;;;;;;;11.32;5.63;;;19.20;56.50;;;;;;5033538;28;20033;-73
2023/01/30 06:25:05;;;;;;;12.15;5.75;;;19.20;56.40;;;;;;5032980;28;20028;-74
2023/01/30 06:27:30;;;;;;;12.60;5.97;;;19.20;56.20;;;;;;5031795;28;20400;-74
2023/01/30 06:29:56;;;;;;;7.90;5.00;;;19.10;56.00;;;;;;5050157;28;20071;-73
2023/01/30 06:32:22;;;;;;;10.15;5.72;;;19.10;56.10;;;;;;5048375;28;20485;-74
2023/01/30 06:34:48;;;;;;;11.52;5.60;;;19.10;56.00;;;;;;5040818;28;20035;-74
2023/01/30 06:37:13;;;;;;;11.48;5.65;;;19.10;56.00;;;;;;5068892;28;20032;-74
2023/01/30 06:39:39;;;;;;;10.00;5.60;;;19.10;56.20;;;;;;5048361;28;20056;-73
2023/01/30 06:42:06;;;;;;;8.60;5.43;;;19.10;56.30;;;;;;5043485;28;20067;-73
2023/01/30 06:44:31;;;;;;;9.98;5.75;;;19.20;56.10;;;;;;5051270;28;20032;-73
2023/01/30 06:46:57;;;;;;;12.98;5.72;;;19.20;56.30;;;;;;5050339;28;20033;-73
2023/01/30 06:49:23;;;;;;;10.35;5.75;;;19.20;56.10;;;;;;5050904;28;20104;-73
2023/01/30 06:51:49;;;;;;;10.73;5.45;;;19.30;56.30;;;;;;5051144;28;20074;-73
2023/01/30 06:54:14;;;;;;;12.13;5.70;;;19.30;57.30;;;;;;5033324;28;20090;-73
2023/01/30 06:56:40;;;;;;;13.07;5.78;;;19.30;57.10;;;;;;5050027;28;20105;-73
2023/01/30 06:59:06;;;;;;;11.70;6.22;;;19.30;57.50;;;;;;5050816;28;20113;-73
2023/01/30 07:01:32;;;;;;;20.58;6.53;;;19.30;57.90;;;;;;5050889;28;20151;-73
2023/01/30 07:03:58;;;;;;;16.52;6.57;;;19.30;58.70;;;;;;5052762;28;20021;-73
2023/01/30 07:06:26;;;;;;;13.32;6.53;;;19.30;58.80;;;;;;5036370;28;20052;-73
2023/01/30 07:08:52;;;;;;;31.73;7.65;;;19.30;59.10;;;;;;5055006;28;20025;-73
2023/01/30 07:11:18;;;;;;;25.90;7.65;;;19.30;61.10;;;;;;5055308;28;20450;-74
2023/01/30 07:13:43;;;;;;;23.45;8.02;;;19.30;61.70;;;;;;5054830;28;20063;-73
2023/01/30 07:16:09;;;;;;;22.83;7.10;;;19.30;63.40;;;;;;5054805;28;20025;-73
2023/01/30 07:18:35;;;;;;;21.98;7.13;;;19.30;61.50;;;;;;5037372;28;20043;-73
2023/01/30 07:21:01;;;;;;;19.15;6.95;;;19.40;63.70;;;;;;5053523;28;20047;-73
2023/01/30 07:23:27;;;;;;;25.23;6.63;;;19.30;61.60;;;;;;5035727;28;20051;-73
2023/01/30 07:25:53;;;;;;;17.50;6.78;;;19.30;62.50;;;;;;5052433;28;20052;-73
2023/01/30 07:28:19;;;;;;;17.42;7.35;;;19.30;61.00;;;;;;5020018;28;20021;-73
2023/01/30 07:30:45;;;;;;;17.15;6.90;;;19.30;62.50;;;;;;5035610;28;20040;-73
2023/01/30 07:33:11;;;;;;;14.43;7.00;;;19.30;61.40;;;;;;5054418;28;20044;-73
2023/01/30 07:35:37;;;;;;;15.27;6.35;;;19.30;61.70;;;;;;5054068;28;20032;-73
2023/01/30 07:38:04;;;;;;;15.50;6.32;;;19.30;60.90;;;;;;5035884;28;20062;-73
2023/01/30 07:40:30;;;;;;;14.93;6.00;;;19.30;62.50;;;;;;5054321;28;20028;-74
2023/01/30 07:43:05;;;;;;;16.92;6.13;;;19.30;60.40;;;;;;5036385;28;20033;-74
2023/01/30 07:45:40;;;;;;;15.73;6.40;;;19.30;60.20;;;;;;5036595;28;20380;-73
2023/01/30 07:48:08;;;;;;;21.15;6.97;;;19.30;60.20;;;;;;5054309;28;20025;-73
2023/01/30 07:50:34;;;;;;;22.25;6.80;;;19.30;60.20;;;;;;5054240;28;20052;-73
2023/01/30 07:53:04;;;;;;;16.00;6.45;;;19.30;60.20;;;;;;5036293;28;20440;-74
2023/01/30 07:55:30;;;;;;;16.38;6.43;;;19.30;60.20;;;;;;5053909;28;20033;-73
2023/01/30 07:57:56;;;;;;;13.88;6.32;;;19.30;60.00;;;;;;5054033;28;20032;-73
2023/01/30 08:00:22;;;;;;;15.65;6.00;;;19.30;60.10;;;;;;5053745;28;20017;-73
2023/01/30 08:02:47;;;;;;;13.70;6.53;;;19.30;60.10;;;;;;5036070;28;20033;-73
2023/01/30 08:05:13;;;;;;;18.25;7.25;;;19.30;60.60;;;;;;5052811;28;20025;-74
2023/01/30 08:07:39;;;;;;;13.55;6.60;;;19.30;62.00;;;;;;5052916;28;20143;-73
2023/01/30 08:10:05;;;;;;;13.68;6.47;;;19.30;60.60;;;;;;5053152;28;20041;-74
2023/01/30 08:12:31;;;;;;;17.60;6.75;;;19.30;64.10;;;;;;5053862;28;20116;-74
2023/01/30 08:14:57;;;;;;;14.57;6.53;;;19.30;61.40;;;;;;5053207;28;20500;-74
2023/01/30 08:17:23;;;;;;;16.30;6.80;;;19.40;60.80;;;;;;5035936;28;20439;-73
2023/01/30 08:19:48;;;;;;;15.35;6.57;;;19.40;61.30;;;;;;5035617;28;20028;-73
2023/01/30 08:22:14;;;;;;;14.73;6.65;;;19.40;63.30;;;;;;5053536;28;20114;-74
2023/01/30 08:24:40;;;;;;;15.45;6.53;;;19.40;61.40;;;;;;5053643;28;20716;-73
2023/01/30 08:27:06;;;;;;;14.35;6.03;;;19.40;62.40;;;;;;5053560;28;20021;-74
2023/01/30 08:29:32;;;;;;;30.42;6.70;;;19.40;62.50;;;;;;5053320;28;20028;-73
2023/01/30 08:31:58;;;;;;;18.38;7.10;;;19.40;62.30;;;;;;5053619;28;20032;-73
2023/01/30 08:34:25;;;;;;;25.10;6.60;;;19.50;62.90;;;;;;5035726;28;20429;-73
2023/01/30 08:36:51;;;;;;;24.60;9.88;;;19.50;60.70;;;;;;5035637;28;20037;-73
2023/01/30 08:39:17;;;;;;;20.95;9.45;;;19.50;64.90;;;;;;5053032;28;20198;-74
2023/01/30 08:41:42;;;;;;;20.75;9.52;;;19.50;63.70;;;;;;5053380;28;20025;-80
2023/01/30 08:44:11;;;;;;;20.95;9.18;;;19.40;62.40;;;;;;5053533;28;20025;-79
2023/01/30 08:46:38;;;;;;;21.25;10.35;;;18.80;55.50;;;;;;5053503;28;20021;-73
2023/01/30 08:49:04;;;;;;;31.92;12.15;;;18.30;52.70;;;;;;5047547;28;20034;-75
2023/01/30 08:51:31;;;;;;;37.17;12.75;;;18.40;53.50;;;;;;5050846;28;20404;-71
2023/01/30 08:53:57;;;;;;;24.63;11.80;;;18.60;55.10;;;;;;5050799;28;20037;-72
2023/01/30 08:56:23;;;;;;;22.27;12.27;;;18.70;55.10;;;;;;5032709;28;20033;-71
2023/01/30 08:58:49;;;;;;;24.50;12.73;;;18.90;54.30;;;;;;5049147;28;20337;-71
2023/01/30 09:01:15;;;;;;;21.95;11.90;;;18.90;55.00;;;;;;5050015;28;20078;-72
2023/01/30 09:03:41;;;;;;;22.25;11.35;;;19.00;54.70;;;;;;5033234;28;20037;-72
2023/01/30 09:06:07;;;;;;;19.55;10.63;;;19.00;55.10;;;;;;5032747;28;20029;-72
2023/01/30 09:08:34;;;;;;;21.65;11.75;;;19.10;55.20;;;;;;5032738;28;20544;-72
2023/01/30 09:11:02;;;;;;;18.60;10.55;;;19.10;55.30;;;;;;5049092;28;20025;-72
2023/01/30 09:13:29;;;;;;;18.42;10.32;;;19.20;55.60;;;;;;5032654;28;20119;-72
2023/01/30 09:15:56;;;;;;;16.52;10.15;;;19.20;55.50;;;;;;5016337;28;20036;-72
2023/01/30 09:18:22;;;;;;;20.23;10.68;;;19.20;55.80;;;;;;5032760;28;20502;-72
2023/01/30 09:20:48;;;;;;;20.23;10.45;;;19.20;55.90;;;;;;5049902;28;20090;-72
2023/01/30 09:23:14;;;;;;;19.42;10.38;;;19.20;55.90;;;;;;5050488;28;20021;-72
2023/01/30 09:25:40;;;;;;;18.25;10.65;;;19.30;56.00;;;;;;5049421;28;20033;-72
2023/01/30 09:28:06;;;;;;;30.00;9.77;;;19.30;56.10;;;;;;5049799;28;20029;-72
2023/01/30 09:30:32;;;;;;;23.85;10.18;;;19.30;57.50;;;;;;5049555;28;20048;-72
2023/01/30 09:32:58;;;;;;;22.23;9.95;;;19.30;57.30;;;;;;5032515;28;20086;-71
2023/01/30 09:35:24;;;;;;;18.60;10.18;;;19.30;57.70;;;;;;5050101;28;20033;-72
2023/01/30 09:37:52;;;;;;;18.58;9.80;;;19.30;56.80;;;;;;5049957;28;20029;-72
2023/01/30 09:40:25;;;;;;;19.38;9.27;;;19.30;57.10;;;;;;5049640;28;20055;-72
2023/01/30 09:42:54;;;;;;;17.23;10.10;;;19.30;57.00;;;;;;5015713;28;20041;-72
2023/01/30 09:45:25;;;;;;;22.02;9.20;;;19.30;57.20;;;;;;5049877;28;20484;-72
2023/01/30 09:48:16;;;;;;;21.42;9.10;;;19.30;58.10;;;;;;5050175;28;20104;-72
2023/01/30 09:51:01;;;;;;;17.85;8.73;;;19.40;58.10;;;;;;5049521;28;20504;-71
2023/01/30 09:53:39;;;;;;;28.08;9.73;;;19.40;57.60;;;;;;5029532;28;20387;-72
2023/01/30 09:56:05;;;;;;;21.52;9.52;;;19.40;58.90;;;;;;5015306;28;20455;-72
2023/01/30 09:58:46;;;;;;;17.85;9.60;;;19.40;58.50;;;;;;5049893;28;20035;-75
2023/01/30 10:01:43;;;;;;;29.60;13.30;;;19.40;58.40;;;;;;5048602;28;20232;-78
2023/01/30 10:04:30;;;;;;;29.08;19.60;;;19.30;58.50;;;;;;5028219;28;20037;-74
2023/01/30 10:07:09;;;;;;;33.17;20.77;;;19.30;57.10;;;;;;5048459;28;20033;-74
2023/01/30 10:09:55;;;;;;;33.33;19.20;;;19.10;55.20;;;;;;5048221;28;20021;-73
2023/01/30 10:12:26;;;;;;;30.75;15.90;;;18.90;52.30;;;;;;5045401;28;20520;-72
2023/01/30 10:15:18;;;;;;;26.73;16.13;;;18.90;53.00;;;;;;5043930;28;20116;-73
2023/01/30 10:18:11;;;;;;;28.55;16.25;;;19.00;53.60;;;;;;5056072;28;20032;-73
2023/01/30 10:21:07;;;;;;;27.75;14.82;;;19.00;53.60;;;;;;5049114;28;20484;-73
2023/01/30 10:23:39;;;;;;;32.78;15.30;;;19.10;54.70;;;;;;4997170;28;20052;-74
2023/01/30 10:26:20;;;;;;;28.02;15.20;;;19.10;55.20;;;;;;5046918;28;20594;-71
2023/01/30 10:29:04;;;;;;;33.33;14.52;;;19.20;55.90;;;;;;5029883;28;20036;-73
2023/01/30 10:31:45;;;;;;;24.23;14.15;;;19.30;56.10;;;;;;5045004;28;20032;-81
2023/01/30 10:34:28;;;;;;;27.52;10.70;;;19.30;55.00;;;;;;5013673;28;20544;-80
2023/01/30 10:37:18;;;;;;;17.45;8.40;;;19.10;51.00;;;;;;5048230;28;20028;-81
2023/01/30 10:39:44;;;;;;;19.17;7.95;;;18.90;48.20;;;;;;5030836;28;20052;-72
2023/01/30 10:42:12;;;;;;;19.35;6.15;;;18.80;49.20;;;;;;5048820;28;20508;-72
2023/01/30 10:44:41;;;;;;;18.15;6.22;;;18.80;49.40;;;;;;5044898;28;20040;-74
2023/01/30 10:47:25;;;;;;;15.63;6.63;;;18.80;49.70;;;;;;5046831;28;20031;-74
2023/01/30 10:50:01;;;;;;;21.70;7.35;;;18.90;50.30;;;;;;5047012;28;20029;-73
2023/01/30 10:52:42;;;;;;;14.45;6.10;;;18.90;49.60;;;;;;5046245;28;20057;-73
2023/01/30 10:55:33;;;;;;;16.20;6.10;;;19.00;50.10;;;;;;5029114;28;20063;-74
2023/01/30 10:58:31;;;;;;;15.10;6.75;;;19.10;50.50;;;;;;5044585;28;20048;-74
2023/01/30 11:00:59;;;;;;;12.75;6.57;;;19.10;51.60;;;;;;5046755;28;20452;-73
2023/01/30 11:03:36;;;;;;;16.60;5.75;;;19.10;51.10;;;;;;5029497;28;20032;-74
2023/01/30 11:06:09;;;;;;;19.50;6.28;;;19.10;51.70;;;;;;5043250;28;20032;-74
2023/01/30 11:08:35;;;;;;;16.35;6.13;;;19.20;52.80;;;;;;5047502;28;20100;-77
2023/01/30 11:11:22;;;;;;;18.38;6.40;;;19.20;53.10;;;;;;5046852;28;20583;-73
2023/01/30 11:13:48;;;;;;;16.95;6.53;;;19.20;53.10;;;;;;5047321;28;20025;-72
2023/01/30 11:16:14;;;;;;;18.75;6.25;;;19.30;53.20;;;;;;5047424;28;20477;-73
2023/01/30 11:18:47;;;;;;;16.88;5.93;;;19.30;53.60;;;;;;5048231;28;20025;-73
2023/01/30 11:21:25;;;;;;;17.77;5.93;;;19.30;53.40;;;;;;5044947;28;20021;-72
2023/01/30 11:23:52;;;;;;;21.25;6.20;;;19.30;53.60;;;;;;5045288;28;20029;-73
2023/01/30 11:26:29;;;;;;;13.98;6.03;;;19.30;53.40;;;;;;5046772;28;20086;-72
2023/01/30 11:28:55;;;;;;;16.05;6.32;;;19.30;53.40;;;;;;5047074;28;20090;-72
2023/01/30 11:31:25;;;;;;;15.35;5.53;;;19.30;54.00;;;;;;5050857;28;20310;-72
2023/01/30 11:34:04;;;;;;;15.50;5.75;;;19.30;53.50;;;;;;5050486;28;20033;-72
2023/01/30 11:36:34;;;;;;;18.23;6.22;;;19.30;53.80;;;;;;5033124;28;20574;-72
2023/01/30 11:39:12;;;;;;;24.08;7.03;;;19.30;53.90;;;;;;5051170;28;20039;-72
2023/01/30 11:41:42;;;;;;;15.55;5.88;;;19.30;53.30;;;;;;5051577;28;20404;-72
2023/01/30 11:44:13;;;;;;;16.58;5.97;;;19.30;53.90;;;;;;5019884;28;20021;-70
2023/01/30 11:46:42;;;;;;;14.23;5.68;;;19.30;53.80;;;;;;5069551;28;20487;-70
2023/01/30 11:49:14;;;;;;;15.45;5.60;;;19.30;54.00;;;;;;5052089;28;20032;-71
2023/01/30 11:51:43;;;;;;;13.45;5.63;;;19.30;54.10;;;;;;5054384;28;20515;-71
2023/01/30 11:54:26;;;;;;;18.92;6.22;;;19.30;54.40;;;;;;5072372;28;20399;-71
2023/01/30 11:56:57;;;;;;;16.42;6.15;;;19.30;54.20;;;;;;5072125;28;20040;-71
2023/01/30 11:59:43;;;;;;;13.73;6.07;;;19.40;54.20;;;;;;5053656;28;20511;-71
2023/01/30 12:02:36;;;;;;;17.73;5.57;;;19.40;54.30;;;;;;5072975;28;20128;-71
2023/01/30 12:05:35;;;;;;;17.55;6.03;;;19.40;54.50;;;;;;5072416;28;20392;-70
2023/01/30 12:08:24;;;;;;;12.38;5.30;;;19.40;54.80;;;;;;5068584;28;20412;-71
2023/01/30 12:11:00;;;;;;;13.63;5.50;;;19.40;55.10;;;;;;5071844;28;20480;-71
2023/01/30 12:13:39;;;;;;;13.82;5.75;;;19.40;55.30;;;;;;5072359;28;20052;-71
2023/01/30 12:16:37;;;;;;;18.67;6.25;;;19.40;55.40;;;;;;5071712;28;20081;-71
2023/01/30 12:19:15;;;;;;;14.15;5.82;;;19.40;55.60;;;;;;5059111;22;20140;-75
2023/01/30 12:21:49;;;;;;;16.42;5.75;;;19.40;55.60;;;;;;5033257;28;20548;-75
2023/01/30 12:24:37;;;;;;;10.40;5.20;;;19.40;55.70;;;;;;5032773;28;20029;-74
2023/01/30 12:27:20;;;;;;;13.77;5.85;;;19.40;55.80;;;;;;5031765;28;20025;-75
2023/01/30 12:30:35;;;;;;;17.40;6.18;;;19.40;55.90;;;;;;5011873;28;20430;-75
2023/01/30 12:33:04;;;;;;;11.65;5.25;;;19.40;56.00;;;;;;5017826;28;20350;-75
2023/01/30 12:35:58;;;;;;;11.02;5.47;;;19.40;56.30;;;;;;5032182;28;20029;-74
2023/01/30 12:38:52;;;;;;;14.45;5.43;;;19.40;56.20;;;;;;5040000;28;20096;-75
2023/01/30 12:42:02;;;;;;;15.50;5.80;;;19.40;56.50;;;;;;5051845;28;20029;-75
2023/01/30 12:44:39;;;;;;;;;;;19.40;56.70;;;;;;4997689;28;20126;-75
2023/01/30 12:47:33;;;;;;;15.10;5.40;;;19.40;57.60;;;;;;5052062;28;20236;-75
2023/01/30 12:50:14;;;;;;;17.17;5.03;;;19.50;57.50;;;;;;5051685;28;20036;-76
2023/01/30 12:53:18;;;;;;;12.52;5.15;;;19.50;57.40;;;;;;5052145;28;20080;-76
2023/01/30 12:56:15;;;;;;;12.40;4.93;;;19.50;57.40;;;;;;5020540;28;20049;-75
2023/01/30 12:58:45;;;;;;;11.02;4.78;;;19.50;57.00;;;;;;5035031;28;20044;-76
2023/01/30 13:01:35;;;;;;;20.40;5.22;;;19.50;57.30;;;;;;5054482;28;20463;-79
2023/01/30 13:04:27;;;;;;;20.73;4.30;;;19.40;54.30;;;;;;5063899;28;20318;-77
2023/01/30 13:07:14;;;;;;;14.38;3.50;;;18.60;47.80;;;;;;5037211;28;20025;-79